sensor_id;sensor_type;location;lat;lon;timestamp;pressure;altitude;pressure_sealevel;temperature;humidity
61900;BME280;47853;55.890;37.664;2023-08-21T00:01:29;99433.13;;;19.18;100.00
61900;BME280;47853;55.890;37.664;2023-08-21T00:03:54;99436.59;;;19.25;100.00
61900;BME280;47853;55.890;37.664;2023-08-21T00:06:20;99427.84;;;19.48;100.00
61900;BME280;47853;55.890;37.664;2023-08-21T00:08:45;99439.28;;;19.25;100.00
61900;BME280;47853;55.890;37.664;2023-08-21T00:11:10;99439.72;;;19.03;100.00
61900;BME280;47853;55.890;37.664;2023-08-21T00:13:35;99434.28;;;19.28;100.00
61900;BME280;47853;55.890;37.664;2023-08-21T00:16:00;99436.59;;;18.23;100.00
61900;BME280;47853;55.890;37.664;2023-08-21T00:18:26;99440.13;;;17.13;100.00
61900;BME280;47853;55.890;37.664;2023-08-21T00:20:51;99437.88;;;16.69;100.00
61900;BME280;47853;55.890;37.664;2023-08-21T00:23:16;99439.31;;;16.38;100.00
61900;BME280;47853;55.890;37.664;2023-08-21T00:25:42;99443.00;;;17.83;100.00
61900;BME280;47853;55.890;37.664;2023-08-21T00:28:07;99435.50;;;18.31;100.00
61900;BME280;47853;55.890;37.664;2023-08-21T00:30:32;99434.44;;;18.64;100.00
61900;BME280;47853;55.890;37.664;2023-08-21T00:32:57;99437.22;;;18.76;100.00
61900;BME280;47853;55.890;37.664;2023-08-21T00:35:23;99440.75;;;18.51;100.00
61900;BME280;47853;55.890;37.664;2023-08-21T00:37:48;99435.47;;;18.89;100.00
61900;BME280;47853;55.890;37.664;2023-08-21T00:40:13;99425.59;;;18.82;100.00
61900;BME280;47853;55.890;37.664;2023-08-21T00:42:39;99416.66;;;18.38;100.00
61900;BME280;47853;55.890;37.664;2023-08-21T00:45:04;99426.00;;;17.51;100.00
61900;BME280;47853;55.890;37.664;2023-08-21T00:47:29;99424.47;;;16.89;100.00
61900;BME280;47853;55.890;37.664;2023-08-21T00:49:55;99421.97;;;16.88;100.00
61900;BME280;47853;55.890;37.664;2023-08-21T00:52:20;99426.22;;;17.88;100.00
61900;BME280;47853;55.890;37.664;2023-08-21T00:54:45;99416.19;;;18.16;100.00
61900;BME280;47853;55.890;37.664;2023-08-21T00:57:11;99418.63;;;18.49;100.00
61900;BME280;47853;55.890;37.664;2023-08-21T00:59:37;99424.50;;;18.39;100.00
61900;BME280;47853;55.890;37.664;2023-08-21T01:02:03;99424.78;;;18.82;100.00
61900;BME280;47853;55.890;37.664;2023-08-21T01:04:28;99424.56;;;18.58;100.00
61900;BME280;47853;55.890;37.664;2023-08-21T01:06:53;99434.81;;;18.68;100.00
61900;BME280;47853;55.890;37.664;2023-08-21T01:11:49;99433.13;;;16.64;100.00
61900;BME280;47853;55.890;37.664;2023-08-21T01:14:28;99438.91;;;16.61;100.00
61900;BME280;47853;55.890;37.664;2023-08-21T01:16:57;99437.03;;;16.95;100.00
61900;BME280;47853;55.890;37.664;2023-08-21T01:21:55;99439.06;;;18.57;100.00
61900;BME280;47853;55.890;37.664;2023-08-21T01:24:20;99441.16;;;18.80;100.00
61900;BME280;47853;55.890;37.664;2023-08-21T01:26:45;99442.25;;;18.91;100.00
61900;BME280;47853;55.890;37.664;2023-08-21T01:29:10;99441.91;;;19.13;100.00
61900;BME280;47853;55.890;37.664;2023-08-21T01:31:36;99442.53;;;17.34;100.00
61900;BME280;47853;55.890;37.664;2023-08-21T01:34:04;99442.19;;;16.43;100.00
61900;BME280;47853;55.890;37.664;2023-08-21T01:36:31;99436.41;;;16.87;100.00
61900;BME280;47853;55.890;37.664;2023-08-21T01:38:56;99445.91;;;16.82;100.00
61900;BME280;47853;55.890;37.664;2023-08-21T01:41:25;99439.72;;;16.95;100.00
61900;BME280;47853;55.890;37.664;2023-08-21T01:43:50;99444.56;;;17.98;100.00
61900;BME280;47853;55.890;37.664;2023-08-21T01:46:15;99440.44;;;18.34;100.00
61900;BME280;47853;55.890;37.664;2023-08-21T01:48:40;99440.75;;;18.51;100.00
61900;BME280;47853;55.890;37.664;2023-08-21T01:51:05;99446.09;;;18.58;100.00
61900;BME280;47853;55.890;37.664;2023-08-21T01:53:31;99441.41;;;18.72;100.00
61900;BME280;47853;55.890;37.664;2023-08-21T01:55:56;99449.66;;;19.03;100.00
61900;BME280;47853;55.890;37.664;2023-08-21T01:58:21;99450.41;;;17.36;100.00
61900;BME280;47853;55.890;37.664;2023-08-21T02:00:46;99462.63;;;16.64;100.00
61900;BME280;47853;55.890;37.664;2023-08-21T02:03:12;99461.16;;;16.89;100.00
61900;BME280;47853;55.890;37.664;2023-08-21T02:05:38;99455.78;;;16.48;100.00
61900;BME280;47853;55.890;37.664;2023-08-21T02:08:03;99461.50;;;18.05;100.00
61900;BME280;47853;55.890;37.664;2023-08-21T02:10:28;99461.34;;;18.64;100.00
61900;BME280;47853;55.890;37.664;2023-08-21T02:12:53;99463.03;;;18.59;100.00
61900;BME280;47853;55.890;37.664;2023-08-21T02:15:19;99460.66;;;18.69;100.00
61900;BME280;47853;55.890;37.664;2023-08-21T02:17:44;99459.63;;;18.70;100.00
61900;BME280;47853;55.890;37.664;2023-08-21T02:20:09;99460.66;;;17.52;100.00
61900;BME280;47853;55.890;37.664;2023-08-21T02:22:35;99462.63;;;16.58;100.00
61900;BME280;47853;55.890;37.664;2023-08-21T02:25:00;99466.31;;;16.36;100.00
61900;BME280;47853;55.890;37.664;2023-08-21T02:27:25;99466.31;;;16.36;100.00
61900;BME280;47853;55.890;37.664;2023-08-21T02:29:50;99463.09;;;17.74;100.00
61900;BME280;47853;55.890;37.664;2023-08-21T02:32:15;99466.09;;;18.37;100.00
61900;BME280;47853;55.890;37.664;2023-08-21T02:34:40;99460.22;;;18.47;100.00
61900;BME280;47853;55.890;37.664;2023-08-21T02:37:06;99455.28;;;18.69;100.00
61900;BME280;47853;55.890;37.664;2023-08-21T02:39:31;99457.53;;;18.72;100.00
61900;BME280;47853;55.890;37.664;2023-08-21T02:41:56;99462.75;;;18.67;100.00
61900;BME280;47853;55.890;37.664;2023-08-21T02:44:21;99456.56;;;18.92;100.00
61900;BME280;47853;55.890;37.664;2023-08-21T02:46:46;99444.03;;;18.79;100.00
61900;BME280;47853;55.890;37.664;2023-08-21T02:49:11;99455.09;;;18.70;100.00
61900;BME280;47853;55.890;37.664;2023-08-21T02:51:37;99452.28;;;18.84;100.00
61900;BME280;47853;55.890;37.664;2023-08-21T02:54:02;99451.06;;;19.05;100.00
61900;BME280;47853;55.890;37.664;2023-08-21T02:56:27;99468.53;;;17.40;100.00
61900;BME280;47853;55.890;37.664;2023-08-21T02:58:52;99464.28;;;16.92;100.00
61900;BME280;47853;55.890;37.664;2023-08-21T03:01:17;99463.44;;;16.72;100.00
61900;BME280;47853;55.890;37.664;2023-08-21T03:03:43;99466.75;;;18.25;100.00
61900;BME280;47853;55.890;37.664;2023-08-21T03:06:08;99462.59;;;18.87;100.00
61900;BME280;47853;55.890;37.664;2023-08-21T03:08:33;99464.91;;;19.09;100.00
61900;BME280;47853;55.890;37.664;2023-08-21T03:10:58;99465.38;;;19.24;100.00
61900;BME280;47853;55.890;37.664;2023-08-21T03:13:23;99472.78;;;19.29;100.00
61900;BME280;47853;55.890;37.664;2023-08-21T03:15:48;99461.19;;;19.28;100.00
61900;BME280;47853;55.890;37.664;2023-08-21T03:18:14;99459.34;;;19.48;100.00
61900;BME280;47853;55.890;37.664;2023-08-21T03:20:43;99464.28;;;19.69;100.00
61900;BME280;47853;55.890;37.664;2023-08-21T03:23:09;99462.78;;;19.74;100.00
61900;BME280;47853;55.890;37.664;2023-08-21T03:25:34;99473.63;;;19.48;100.00
61900;BME280;47853;55.890;37.664;2023-08-21T03:27:59;99459.97;;;19.06;100.00
61900;BME280;47853;55.890;37.664;2023-08-21T03:30:24;99467.78;;;19.33;100.00
61900;BME280;47853;55.890;37.664;2023-08-21T03:32:49;99469.72;;;19.44;100.00
61900;BME280;47853;55.890;37.664;2023-08-21T03:35:14;99464.69;;;19.66;100.00
61900;BME280;47853;55.890;37.664;2023-08-21T03:37:40;99467.38;;;19.85;100.00
61900;BME280;47853;55.890;37.664;2023-08-21T03:40:05;99462.84;;;19.67;100.00
61900;BME280;47853;55.890;37.664;2023-08-21T03:42:30;99462.09;;;19.60;100.00
61900;BME280;47853;55.890;37.664;2023-08-21T03:44:56;99464.69;;;19.85;100.00
61900;BME280;47853;55.890;37.664;2023-08-21T03:47:21;99463.13;;;20.26;100.00
61900;BME280;47853;55.890;37.664;2023-08-21T03:49:46;99463.34;;;20.25;100.00
61900;BME280;47853;55.890;37.664;2023-08-21T03:52:11;99457.53;;;19.60;100.00
61900;BME280;47853;55.890;37.664;2023-08-21T03:54:36;99471.69;;;19.55;100.00
61900;BME280;47853;55.890;37.664;2023-08-21T03:57:01;99470.91;;;18.28;100.00
61900;BME280;47853;55.890;37.664;2023-08-21T03:59:27;99473.34;;;17.32;100.00
61900;BME280;47853;55.890;37.664;2023-08-21T04:01:52;99469.22;;;16.62;100.00
61900;BME280;47853;55.890;37.664;2023-08-21T04:04:17;99467.91;;;18.04;100.00
61900;BME280;47853;55.890;37.664;2023-08-21T04:06:42;99467.38;;;18.27;100.00
61900;BME280;47853;55.890;37.664;2023-08-21T04:09:07;99472.63;;;18.73;100.00
61900;BME280;47853;55.890;37.664;2023-08-21T04:11:33;99463.06;;;19.28;100.00
61900;BME280;47853;55.890;37.664;2023-08-21T04:13:58;99468.97;;;19.74;100.00
61900;BME280;47853;55.890;37.664;2023-08-21T04:16:23;99478.91;;;20.11;100.00
61900;BME280;47853;55.890;37.664;2023-08-21T04:18:48;99471.13;;;20.03;100.00
61900;BME280;47853;55.890;37.664;2023-08-21T04:21:13;99469.25;;;19.84;100.00
61900;BME280;47853;55.890;37.664;2023-08-21T04:23:38;99471.75;;;19.49;100.00
61900;BME280;47853;55.890;37.664;2023-08-21T04:26:04;99476.94;;;20.18;100.00
61900;BME280;47853;55.890;37.664;2023-08-21T04:28:32;99475.31;;;19.98;100.00
61900;BME280;47853;55.890;37.664;2023-08-21T04:30:57;99472.88;;;20.27;100.00
61900;BME280;47853;55.890;37.664;2023-08-21T04:33:24;99471.44;;;19.76;100.00
61900;BME280;47853;55.890;37.664;2023-08-21T04:35:49;99467.47;;;19.97;100.00
61900;BME280;47853;55.890;37.664;2023-08-21T04:38:15;99471.69;;;20.23;100.00
61900;BME280;47853;55.890;37.664;2023-08-21T04:40:40;99467.88;;;20.12;100.00
61900;BME280;47853;55.890;37.664;2023-08-21T04:43:05;99465.75;;;20.45;100.00
61900;BME280;47853;55.890;37.664;2023-08-21T04:45:30;99473.59;;;20.89;100.00
61900;BME280;47853;55.890;37.664;2023-08-21T04:47:55;99479.66;;;19.99;100.00
61900;BME280;47853;55.890;37.664;2023-08-21T04:50:21;99480.63;;;20.36;100.00
61900;BME280;47853;55.890;37.664;2023-08-21T04:52:46;99480.97;;;20.94;99.61
61900;BME280;47853;55.890;37.664;2023-08-21T04:55:11;99476.00;;;18.68;100.00
61900;BME280;47853;55.890;37.664;2023-08-21T04:57:36;99487.94;;;18.47;100.00
61900;BME280;47853;55.890;37.664;2023-08-21T05:00:01;99479.78;;;18.86;100.00
61900;BME280;47853;55.890;37.664;2023-08-21T05:02:27;99482.34;;;19.99;100.00
61900;BME280;47853;55.890;37.664;2023-08-21T05:04:52;99480.84;;;19.85;100.00
61900;BME280;47853;55.890;37.664;2023-08-21T05:07:17;99474.28;;;19.62;100.00
61900;BME280;47853;55.890;37.664;2023-08-21T05:09:42;99491.50;;;19.98;100.00
61900;BME280;47853;55.890;37.664;2023-08-21T05:12:07;99473.53;;;20.11;100.00
61900;BME280;47853;55.890;37.664;2023-08-21T05:14:33;99471.84;;;20.52;100.00
61900;BME280;47853;55.890;37.664;2023-08-21T05:16:58;99465.88;;;20.50;100.00
61900;BME280;47853;55.890;37.664;2023-08-21T05:19:23;99469.38;;;20.81;100.00
61900;BME280;47853;55.890;37.664;2023-08-21T05:21:48;99480.78;;;21.07;100.00
61900;BME280;47853;55.890;37.664;2023-08-21T05:24:13;99477.78;;;21.68;99.44
61900;BME280;47853;55.890;37.664;2023-08-21T05:26:38;99472.47;;;22.14;89.64
61900;BME280;47853;55.890;37.664;2023-08-21T05:29:04;99477.88;;;22.60;87.06
61900;BME280;47853;55.890;37.664;2023-08-21T05:31:29;99466.97;;;22.89;81.29
61900;BME280;47853;55.890;37.664;2023-08-21T05:33:55;99478.75;;;24.01;74.21
61900;BME280;47853;55.890;37.664;2023-08-21T05:36:22;99482.53;;;20.47;100.00
61900;BME280;47853;55.890;37.664;2023-08-21T05:38:48;99481.09;;;20.02;100.00
61900;BME280;47853;55.890;37.664;2023-08-21T05:41:14;99470.09;;;20.46;100.00
61900;BME280;47853;55.890;37.664;2023-08-21T05:43:39;99474.16;;;22.50;86.57
61900;BME280;47853;55.890;37.664;2023-08-21T05:46:07;99474.66;;;23.15;76.10
61900;BME280;47853;55.890;37.664;2023-08-21T05:48:32;99471.13;;;23.54;73.53
61900;BME280;47853;55.890;37.664;2023-08-21T05:50:58;99472.06;;;23.65;71.12
61900;BME280;47853;55.890;37.664;2023-08-21T05:53:23;99463.09;;;23.42;73.78
61900;BME280;47853;55.890;37.664;2023-08-21T05:55:48;99470.53;;;23.96;69.38
61900;BME280;47853;55.890;37.664;2023-08-21T05:58:13;99465.06;;;23.91;70.14
61900;BME280;47853;55.890;37.664;2023-08-21T06:00:38;99468.22;;;24.05;67.23
61900;BME280;47853;55.890;37.664;2023-08-21T06:03:04;99467.34;;;24.27;65.37
61900;BME280;47853;55.890;37.664;2023-08-21T06:05:30;99455.13;;;24.89;61.14
61900;BME280;47853;55.890;37.664;2023-08-21T06:07:55;99453.00;;;26.19;54.36
61900;BME280;47853;55.890;37.664;2023-08-21T06:10:20;99463.47;;;21.68;70.06
61900;BME280;47853;55.890;37.664;2023-08-21T06:12:45;99465.03;;;20.38;87.86
61900;BME280;47853;55.890;37.664;2023-08-21T06:15:10;99453.44;;;20.07;95.96
61900;BME280;47853;55.890;37.664;2023-08-21T06:17:36;99464.28;;;22.43;76.34
61900;BME280;47853;55.890;37.664;2023-08-21T06:20:01;99454.53;;;22.42;72.01
61900;BME280;47853;55.890;37.664;2023-08-21T06:22:27;99458.28;;;23.66;66.57
61900;BME280;47853;55.890;37.664;2023-08-21T06:24:52;99458.09;;;26.00;54.36
61900;BME280;47853;55.890;37.664;2023-08-21T06:27:17;99461.44;;;26.23;48.96
61900;BME280;47853;55.890;37.664;2023-08-21T06:29:42;99455.16;;;24.95;52.64
61900;BME280;47853;55.890;37.664;2023-08-21T06:32:08;99459.00;;;24.33;55.60
61900;BME280;47853;55.890;37.664;2023-08-21T06:34:33;99456.41;;;24.49;57.91
61900;BME280;47853;55.890;37.664;2023-08-21T06:36:58;99451.16;;;25.08;53.73
61900;BME280;47853;55.890;37.664;2023-08-21T06:39:23;99451.53;;;24.79;56.50
61900;BME280;47853;55.890;37.664;2023-08-21T06:41:48;99454.06;;;21.99;67.87
61900;BME280;47853;55.890;37.664;2023-08-21T06:44:13;99448.81;;;21.28;73.34
61900;BME280;47853;55.890;37.664;2023-08-21T06:46:39;99448.94;;;20.85;74.98
61900;BME280;47853;55.890;37.664;2023-08-21T06:49:04;99444.78;;;22.41;64.39
61900;BME280;47853;55.890;37.664;2023-08-21T06:51:29;99454.78;;;22.41;63.84
61900;BME280;47853;55.890;37.664;2023-08-21T06:53:54;99451.72;;;22.83;63.53
61900;BME280;47853;55.890;37.664;2023-08-21T06:56:19;99466.63;;;23.03;62.78
61900;BME280;47853;55.890;37.664;2023-08-21T06:58:44;99461.28;;;23.25;61.38
61900;BME280;47853;55.890;37.664;2023-08-21T07:01:10;99464.91;;;23.75;59.67
61900;BME280;47853;55.890;37.664;2023-08-21T07:03:35;99472.91;;;23.87;56.96
61900;BME280;47853;55.890;37.664;2023-08-21T07:06:00;99470.28;;;24.20;57.25
61900;BME280;47853;55.890;37.664;2023-08-21T07:08:26;99460.13;;;25.03;54.16
61900;BME280;47853;55.890;37.664;2023-08-21T07:10:51;99464.19;;;24.68;54.24
61900;BME280;47853;55.890;37.664;2023-08-21T07:13:17;99473.63;;;21.78;70.12
61900;BME280;47853;55.890;37.664;2023-08-21T07:15:42;99477.56;;;21.70;78.34
61900;BME280;47853;55.890;37.664;2023-08-21T07:18:07;99475.59;;;20.94;75.65
61900;BME280;47853;55.890;37.664;2023-08-21T07:20:32;99476.88;;;21.39;75.41
61900;BME280;47853;55.890;37.664;2023-08-21T07:22:57;99466.31;;;24.06;59.00
61900;BME280;47853;55.890;37.664;2023-08-21T07:25:22;99484.34;;;26.73;48.37
61900;BME280;47853;55.890;37.664;2023-08-21T07:27:48;99481.16;;;27.73;43.02
61900;BME280;47853;55.890;37.664;2023-08-21T07:30:13;99472.78;;;27.44;42.54
61900;BME280;47853;55.890;37.664;2023-08-21T07:32:38;99467.91;;;26.06;45.80
61900;BME280;47853;55.890;37.664;2023-08-21T07:35:03;99474.16;;;26.06;46.38
61900;BME280;47853;55.890;37.664;2023-08-21T07:37:29;99473.19;;;22.90;61.96
61900;BME280;47853;55.890;37.664;2023-08-21T07:39:54;99473.31;;;21.62;71.12
61900;BME280;47853;55.890;37.664;2023-08-21T07:42:19;99485.19;;;21.73;71.54
61900;BME280;47853;55.890;37.664;2023-08-21T07:44:44;99467.25;;;22.42;66.81
61900;BME280;47853;55.890;37.664;2023-08-21T07:47:09;99475.28;;;23.84;58.02
61900;BME280;47853;55.890;37.664;2023-08-21T07:49:35;99466.03;;;24.62;55.41
61900;BME280;47853;55.890;37.664;2023-08-21T07:52:03;99471.44;;;25.96;47.69
61900;BME280;47853;55.890;37.664;2023-08-21T07:54:28;99468.44;;;25.39;50.87
61900;BME280;47853;55.890;37.664;2023-08-21T07:56:53;99470.25;;;25.71;48.97
61900;BME280;47853;55.890;37.664;2023-08-21T07:59:19;99465.88;;;25.17;47.06
61900;BME280;47853;55.890;37.664;2023-08-21T08:01:44;99456.25;;;22.31;65.35
61900;BME280;47853;55.890;37.664;2023-08-21T08:04:09;99464.75;;;22.23;67.23
61900;BME280;47853;55.890;37.664;2023-08-21T08:06:34;99464.75;;;22.86;64.13
61900;BME280;47853;55.890;37.664;2023-08-21T08:09:00;99462.00;;;22.35;64.55
61900;BME280;47853;55.890;37.664;2023-08-21T08:11:25;99457.69;;;24.09;56.48
61900;BME280;47853;55.890;37.664;2023-08-21T08:13:50;99452.31;;;24.14;52.44
61900;BME280;47853;55.890;37.664;2023-08-21T08:16:15;99456.50;;;25.40;48.02
61900;BME280;47853;55.890;37.664;2023-08-21T08:18:40;99458.75;;;26.85;43.77
61900;BME280;47853;55.890;37.664;2023-08-21T08:21:06;99449.19;;;26.98;40.21
61900;BME280;47853;55.890;37.664;2023-08-21T08:23:31;99445.41;;;26.37;40.77
61900;BME280;47853;55.890;37.664;2023-08-21T08:25:56;99444.38;;;24.72;51.15
61900;BME280;47853;55.890;37.664;2023-08-21T08:28:21;99444.22;;;24.84;51.12
61900;BME280;47853;55.890;37.664;2023-08-21T08:30:46;99445.59;;;25.30;49.54
61900;BME280;47853;55.890;37.664;2023-08-21T08:33:12;99442.06;;;24.54;53.41
61900;BME280;47853;55.890;37.664;2023-08-21T08:35:37;99437.91;;;23.64;53.36
61900;BME280;47853;55.890;37.664;2023-08-21T08:38:02;99436.66;;;23.10;55.65
61900;BME280;47853;55.890;37.664;2023-08-21T08:40:27;99436.91;;;23.97;54.96
61900;BME280;47853;55.890;37.664;2023-08-21T08:43:00;99436.81;;;24.42;51.09
61900;BME280;47853;55.890;37.664;2023-08-21T08:45:29;99423.31;;;24.80;49.96
61900;BME280;47853;55.890;37.664;2023-08-21T08:47:54;99430.63;;;25.27;47.41
61900;BME280;47853;55.890;37.664;2023-08-21T08:50:19;99427.34;;;25.89;43.87
61900;BME280;47853;55.890;37.664;2023-08-21T08:52:45;99424.16;;;26.59;43.41
61900;BME280;47853;55.890;37.664;2023-08-21T08:55:10;99423.59;;;26.57;43.18
61900;BME280;47853;55.890;37.664;2023-08-21T08:57:35;99425.06;;;25.50;49.24
61900;BME280;47853;55.890;37.664;2023-08-21T09:00:03;99431.00;;;24.00;54.87
61900;BME280;47853;55.890;37.664;2023-08-21T09:02:29;99418.03;;;25.69;46.42
61900;BME280;47853;55.890;37.664;2023-08-21T09:04:54;99417.81;;;25.17;50.06
61900;BME280;47853;55.890;37.664;2023-08-21T09:07:20;99420.00;;;25.20;46.46
61900;BME280;47853;55.890;37.664;2023-08-21T09:09:45;99412.66;;;23.85;47.02
61900;BME280;47853;55.890;37.664;2023-08-21T09:12:11;99412.06;;;24.71;49.00
61900;BME280;47853;55.890;37.664;2023-08-21T09:14:37;99407.81;;;26.90;40.27
61900;BME280;47853;55.890;37.664;2023-08-21T09:17:02;99403.13;;;30.31;32.45
61900;BME280;47853;55.890;37.664;2023-08-21T09:19:27;99399.03;;;27.09;39.25
61900;BME280;47853;55.890;37.664;2023-08-21T09:21:52;99404.25;;;26.12;42.66
61900;BME280;47853;55.890;37.664;2023-08-21T09:24:17;99406.91;;;25.76;40.23
61900;BME280;47853;55.890;37.664;2023-08-21T09:26:43;99403.28;;;27.41;35.02
61900;BME280;47853;55.890;37.664;2023-08-21T09:29:08;99404.53;;;28.15;34.21
61900;BME280;47853;55.890;37.664;2023-08-21T09:31:33;99388.16;;;26.99;36.72
61900;BME280;47853;55.890;37.664;2023-08-21T09:33:59;99405.59;;;25.99;38.16
61900;BME280;47853;55.890;37.664;2023-08-21T09:36:24;99392.81;;;27.69;34.18
61900;BME280;47853;55.890;37.664;2023-08-21T09:38:50;99387.97;;;26.33;39.41
61900;BME280;47853;55.890;37.664;2023-08-21T09:41:15;99394.41;;;25.75;44.61
61900;BME280;47853;55.890;37.664;2023-08-21T09:43:43;99391.47;;;26.02;44.67
61900;BME280;47853;55.890;37.664;2023-08-21T09:46:11;99386.72;;;25.46;42.85
61900;BME280;47853;55.890;37.664;2023-08-21T09:48:38;99374.34;;;26.12;42.28
61900;BME280;47853;55.890;37.664;2023-08-21T09:51:04;99390.50;;;24.91;46.39
61900;BME280;47853;55.890;37.664;2023-08-21T09:53:29;99391.56;;;23.87;48.05
61900;BME280;47853;55.890;37.664;2023-08-21T09:55:55;99382.06;;;24.50;47.63
61900;BME280;47853;55.890;37.664;2023-08-21T09:58:20;99389.19;;;24.56;42.54
61900;BME280;47853;55.890;37.664;2023-08-21T10:00:45;99399.66;;;25.23;42.61
61900;BME280;47853;55.890;37.664;2023-08-21T10:03:12;99392.22;;;25.72;39.08
61900;BME280;47853;55.890;37.664;2023-08-21T10:05:39;99392.69;;;25.48;40.51
61900;BME280;47853;55.890;37.664;2023-08-21T10:08:05;99382.44;;;25.76;40.55
61900;BME280;47853;55.890;37.664;2023-08-21T10:10:31;99386.13;;;25.44;40.19
61900;BME280;47853;55.890;37.664;2023-08-21T10:12:57;99373.66;;;25.48;42.17
61900;BME280;47853;55.890;37.664;2023-08-21T10:15:22;99371.88;;;25.90;39.56
61900;BME280;47853;55.890;37.664;2023-08-21T10:17:47;99373.25;;;26.13;39.52
61900;BME280;47853;55.890;37.664;2023-08-21T10:20:13;99365.81;;;25.62;41.64
61900;BME280;47853;55.890;37.664;2023-08-21T10:22:45;99370.50;;;26.75;40.54
61900;BME280;47853;55.890;37.664;2023-08-21T10:25:17;99365.31;;;26.79;40.65
61900;BME280;47853;55.890;37.664;2023-08-21T10:27:43;99370.91;;;25.43;40.93
61900;BME280;47853;55.890;37.664;2023-08-21T10:30:12;99362.63;;;25.12;43.20
61900;BME280;47853;55.890;37.664;2023-08-21T10:32:43;99368.50;;;25.46;41.70
61900;BME280;47853;55.890;37.664;2023-08-21T10:35:13;99366.69;;;25.04;42.74
61900;BME280;47853;55.890;37.664;2023-08-21T10:37:57;99359.63;;;25.87;40.74
61900;BME280;47853;55.890;37.664;2023-08-21T10:40:23;99365.09;;;25.18;44.06
61900;BME280;47853;55.890;37.664;2023-08-21T10:42:49;99357.44;;;26.05;41.05
61900;BME280;47853;55.890;37.664;2023-08-21T10:45:14;99353.28;;;24.87;41.63
61900;BME280;47853;55.890;37.664;2023-08-21T10:47:39;99359.78;;;24.10;44.51
61900;BME280;47853;55.890;37.664;2023-08-21T10:50:05;99351.81;;;23.49;47.92
61900;BME280;47853;55.890;37.664;2023-08-21T10:52:33;99354.75;;;25.10;43.67
61900;BME280;47853;55.890;37.664;2023-08-21T10:55:00;99350.94;;;26.11;40.48
61900;BME280;47853;55.890;37.664;2023-08-21T10:57:26;99339.72;;;26.70;37.90
61900;BME280;47853;55.890;37.664;2023-08-21T11:02:20;99334.31;;;26.49;36.06
61900;BME280;47853;55.890;37.664;2023-08-21T11:04:45;99340.06;;;26.27;35.96
61900;BME280;47853;55.890;37.664;2023-08-21T11:07:10;99338.66;;;26.55;33.77
61900;BME280;47853;55.890;37.664;2023-08-21T11:09:36;99339.19;;;25.69;37.22
61900;BME280;47853;55.890;37.664;2023-08-21T11:12:05;99340.88;;;26.01;38.30
61900;BME280;47853;55.890;37.664;2023-08-21T11:14:30;99343.84;;;25.00;40.91
61900;BME280;47853;55.890;37.664;2023-08-21T11:16:55;99342.81;;;26.16;37.80
61900;BME280;47853;55.890;37.664;2023-08-21T11:19:21;99335.19;;;27.26;32.45
61900;BME280;47853;55.890;37.664;2023-08-21T11:21:50;99329.72;;;26.13;34.04
61900;BME280;47853;55.890;37.664;2023-08-21T11:24:15;99330.28;;;26.15;35.05
61900;BME280;47853;55.890;37.664;2023-08-21T11:26:40;99335.38;;;25.70;36.89
61900;BME280;47853;55.890;37.664;2023-08-21T11:29:06;99322.38;;;26.19;37.86
61900;BME280;47853;55.890;37.664;2023-08-21T11:31:31;99324.19;;;26.70;36.52
61900;BME280;47853;55.890;37.664;2023-08-21T11:33:56;99318.81;;;25.87;38.57
61900;BME280;47853;55.890;37.664;2023-08-21T11:36:21;99323.38;;;26.64;37.68
61900;BME280;47853;55.890;37.664;2023-08-21T11:38:59;99313.09;;;26.04;37.23
61900;BME280;47853;55.890;37.664;2023-08-21T11:41:24;99322.91;;;26.26;38.78
61900;BME280;47853;55.890;37.664;2023-08-21T11:43:50;99318.81;;;26.39;37.61
61900;BME280;47853;55.890;37.664;2023-08-21T11:46:15;99316.63;;;26.41;38.21
61900;BME280;47853;55.890;37.664;2023-08-21T11:48:42;99328.78;;;26.96;37.02
61900;BME280;47853;55.890;37.664;2023-08-21T11:51:08;99322.72;;;27.09;37.16
61900;BME280;47853;55.890;37.664;2023-08-21T11:53:40;99324.25;;;26.39;37.92
61900;BME280;47853;55.890;37.664;2023-08-21T11:56:09;99319.13;;;26.32;37.38
61900;BME280;47853;55.890;37.664;2023-08-21T11:58:38;99312.75;;;26.73;37.18
61900;BME280;47853;55.890;37.664;2023-08-21T12:01:04;99322.13;;;27.73;34.90
61900;BME280;47853;55.890;37.664;2023-08-21T12:03:29;99314.97;;;26.61;35.57
61900;BME280;47853;55.890;37.664;2023-08-21T12:05:55;99316.56;;;26.72;35.74
61900;BME280;47853;55.890;37.664;2023-08-21T12:08:20;99316.63;;;26.41;36.71
61900;BME280;47853;55.890;37.664;2023-08-21T12:10:45;99317.94;;;26.70;36.88
61900;BME280;47853;55.890;37.664;2023-08-21T12:13:15;99305.09;;;27.52;35.94
61900;BME280;47853;55.890;37.664;2023-08-21T12:15:40;99315.81;;;27.27;35.73
61900;BME280;47853;55.890;37.664;2023-08-21T12:18:05;99309.84;;;26.39;35.62
61900;BME280;47853;55.890;37.664;2023-08-21T12:20:30;99304.75;;;25.06;39.51
61900;BME280;47853;55.890;37.664;2023-08-21T12:22:55;99312.63;;;25.13;38.20
61900;BME280;47853;55.890;37.664;2023-08-21T12:25:21;99315.16;;;25.30;38.26
61900;BME280;47853;55.890;37.664;2023-08-21T12:27:46;99300.91;;;26.17;35.14
61900;BME280;47853;55.890;37.664;2023-08-21T12:30:11;99310.00;;;27.89;32.81
61900;BME280;47853;55.890;37.664;2023-08-21T12:32:36;99301.28;;;26.87;33.93
61900;BME280;47853;55.890;37.664;2023-08-21T12:35:01;99293.63;;;26.94;33.84
61900;BME280;47853;55.890;37.664;2023-08-21T12:37:27;99289.69;;;26.45;35.98
61900;BME280;47853;55.890;37.664;2023-08-21T12:39:53;99290.53;;;26.14;36.01
61900;BME280;47853;55.890;37.664;2023-08-21T12:42:19;99293.41;;;26.85;35.35
61900;BME280;47853;55.890;37.664;2023-08-21T12:44:44;99288.09;;;26.33;36.48